Time;durP1;ratioP1;P1;durP2;ratioP2;P2;SDS_P1;SDS_P2;PMS_P1;PMS_P2;Temp;Humidity;BMP_temperature;BMP_pressure;BME280_temperature;BME280_humidity;BME280_pressure;Samples;Min_cycle;Max_cycle;Signal;HPM_P1;HPM_P2
2022/12/15 00:38:43;;;;;;;;;;;;;;;;;;1053237;28;2392;-47
2022/12/15 00:39:13;;;;;;;;;;;;;;;;;;1053693;28;2956;-50
2022/12/15 00:39:43;;;;;;;;;;;;;;;;;;1054106;28;2286;-48
2022/12/15 00:40:13;;;;;;;;;;;;;;;;;;1053563;28;3476;-47
2022/12/15 00:40:44;;;;;;;;;;;;;;;;;;1052232;28;2928;-48
2022/12/15 00:41:15;;;;;;;;;;;;;;;;;;1052960;28;2469;-49
2022/12/15 00:41:45;;;;;;;;;;;;;;;;;;1051875;28;2450;-50
2022/12/15 00:42:15;;;;;;;;;;;;;;;;;;1051974;28;2561;-49
2022/12/15 00:42:45;;;;;;;;;;;;;;;;;;1052621;28;2390;-48
2022/12/15 00:43:16;;;;;;;;;;;;;;;;;;1054409;28;1673;-50
2022/12/15 00:43:46;;;;;;;;;;;;;;;;;;1051970;28;2245;-45
2022/12/15 00:44:16;;;;;;;;;;;;;;;;;;1052473;28;2601;-49
2022/12/15 00:44:46;;;;;;;;;;;;;;;;;;1052052;28;2150;-47
2022/12/15 00:45:17;;;;;;;;;;;;;;;;;;1053110;28;2350;-51
2022/12/15 00:46:54;;;;;;;;;;;;;;;;;;1052825;28;2475;-47
2022/12/15 00:47:24;;;;;;;;;;;;;;;;;;1052379;28;2397;-48
2022/12/15 00:47:54;;;;;;;;;;;;;;;;;;1053200;28;2667;-49
2022/12/15 00:48:25;;;;;;;;;;;;;;;;;;1052276;28;2488;-49
2022/12/15 00:48:55;;;;;;;;;;;;;;;;;;1054047;28;2661;-52
2022/12/15 00:51:04;;;;;;;;;;;;;;;;;;1051014;28;2400;-48
2022/12/15 01:20:18;;;;;;;;;;;;;;;;;;1051923;28;2406;-49
2022/12/15 01:21:14;;;;;;;;;;;;;;;;;;1053228;28;2346;-48
2022/12/15 01:21:44;;;;;;;;;;;;;;;;;;1048920;28;2055;-46
2022/12/15 01:22:15;;;;;;;;;;;;;;;;;;1052280;28;2487;-49
2022/12/15 01:22:54;;;;;;;;;;;;;;;;;;1053709;28;2869;-48
2022/12/15 01:23:24;;;;;;;;;;;;;;;;;;1048066;28;2304;-49
2022/12/15 01:23:55;;;;;;;;;;;;;;;;;;1045640;28;2018;-47
2022/12/15 01:24:25;;;;;;;;;;;;;;;;;;1045239;28;2892;-48
2022/12/15 01:24:55;;;;;;;;;;;;;;;;;;1045570;28;2462;-46
2022/12/15 01:25:26;;;;;;;;;;;;;;;;;;1047997;28;3674;-49
2022/12/15 01:25:57;;;;;;;;;;;;;;;;;;1048906;28;2418;-49
2022/12/15 01:26:27;;;;;;;;;;;;;;;;;;1052745;28;2313;-49
2022/12/15 01:27:11;;;;;;;;;;;;;;;;;;1051339;28;2833;-48
2022/12/15 01:27:49;;;;;;;;;;;;;;;;;;1054372;28;2218;-46
2022/12/15 01:28:20;;;;;;;;;;;;;;;;;;1047838;28;2399;-52
2022/12/15 01:28:50;;;;;;;;;;;;;;;;;;1048443;28;2949;-47
2022/12/15 01:29:20;;;;;;;;;;;;;;;;;;1049931;28;2436;-45
2022/12/15 01:29:50;;;;;;;;;;;;;;;;;;1047691;28;2637;-48
2022/12/15 01:30:22;;;;;;;;;;;;;;;;;;1052136;28;2275;-49
2022/12/15 01:30:52;;;;;;;;;;;;;;;;;;1052378;28;2143;-46
2022/12/15 01:31:23;;;;;;;;;;;;;;;;;;1053369;28;2371;-50
2022/12/15 01:31:53;;;;;;;;;;;;;;;;;;1053975;28;2667;-50
2022/12/15 01:32:23;;;;;;;;;;;;;;;;;;1054004;28;2458;-49
2022/12/15 01:32:53;;;;;;;;;;;;;;;;;;1049218;28;2365;-47
2022/12/15 01:33:24;;;;;;;;;;;;;;;;;;1049520;28;2497;-51
2022/12/15 01:33:54;;;;;;;;;;;;;;;;;;1048986;28;2688;-48
2022/12/15 01:34:24;;;;;;;;;;;;;;;;;;1050291;28;2442;-50
2022/12/15 01:34:54;;;;;;;;;;;;;;;;;;1051014;28;2629;-49
2022/12/15 01:35:26;;;;;;;;;;;;;;;;;;1052546;28;2653;-48
2022/12/15 01:35:57;;;;;;;;;;;;;;;;;;1055522;28;2398;-51
2022/12/15 01:36:28;;;;;;;;;;;;;;;;;;1052400;28;2311;-48
2022/12/15 01:36:58;;;;;;;;;;;;;;;;;;1054805;28;2381;-47
2022/12/15 01:37:28;;;;;;;;;;;;;;;;;;1053684;28;2629;-49
2022/12/15 01:37:59;;;;;;;;;;;;;;;;;;1053154;28;2169;-51
2022/12/15 01:38:29;;;;;;;;;;;;;;;;;;1047448;28;2339;-52
2022/12/15 01:39:00;;;;;;;;;;;;;;;;;;1051272;28;2048;-47
2022/12/15 01:40:43;;;;;;;;;;;;;;;;;;1049031;28;2957;-47
2022/12/15 01:41:11;;;;;;;;;;;;;;;;;;1052666;28;2148;-48
2022/12/15 01:41:41;;;;;;;;;;;;;;;;;;1053437;28;2178;-49
2022/12/15 01:42:12;;;;;;;;;;;;;;;;;;1052107;28;2310;-48
2022/12/15 01:42:42;;;;;;;;;;;;;;;;;;1051747;28;2612;-46
2022/12/15 01:43:15;;;;;;;;;;;;;;;;;;1055996;28;2034;-52
2022/12/15 01:43:45;;;;;;;;;;;;;;;;;;1053566;28;2066;-46
2022/12/15 01:44:21;;;;;;;;;;;;;;;;;;1053578;28;1635;-48
2022/12/15 01:44:51;;;;;;;;;;;;;;;;;;1054030;28;2625;-50
2022/12/15 01:45:36;;;;;;;;;;;;;;;;;;1053480;28;2517;-47
2022/12/15 01:46:06;;;;;;;;;;;;;;;;;;1053621;28;2397;-47
2022/12/15 01:46:36;;;;;;;;;;;;;;;;;;1051994;28;1881;-48
2022/12/15 01:47:09;;;;;;;;;;;;;;;;;;1055195;28;2172;-48
2022/12/15 01:47:40;;;;;;;;;;;;;;;;;;1051685;28;1810;-45
2022/12/15 01:48:12;;;;;;;;;;;;;;;;;;1051881;28;2118;-49
2022/12/15 01:49:01;;;;;;;;;;;;;;;;;;1049987;28;2615;-47
2022/12/15 01:49:31;;;;;;;;;;;;;;;;;;1048648;28;2216;-49
2022/12/15 01:50:02;;;;;;;;;;;;;;;;;;1051112;28;2473;-48
2022/12/15 01:50:36;;;;;;;;;;;;;;;;;;1051926;28;1680;-45
2022/12/15 01:51:12;;;;;;;;;;;;;;;;;;1053585;28;2312;-46
2022/12/15 01:51:45;;;;;;;;;;;;;;;;;;1053301;28;2820;-48
2022/12/15 01:52:16;;;;;;;;;;;;;;;;;;1052341;28;3028;-47
2022/12/15 01:52:46;;;;;;;;;;;;;;;;;;1053469;28;2109;-47
2022/12/15 01:53:17;;;;;;;;;;;;;;;;;;1046855;28;2317;-49
2022/12/15 01:53:51;;;;;;;;;;;;;;;;;;1047899;28;2524;-46
2022/12/15 01:54:24;;;;;;;;;;;;;;;;;;1048568;28;2088;-48
2022/12/15 01:54:56;;;;;;;;;;;;;;;;;;1048761;28;3000;-48
2022/12/15 01:55:28;;;;;;;;;;;;;;;;;;1052228;28;2602;-48
2022/12/15 01:55:59;;;;;;;;;;;;;;;;;;1049981;28;2327;-49
2022/12/15 01:56:32;;;;;;;;;;;;;;;;;;1049249;28;2798;-48
2022/12/15 01:57:05;;;;;;;;;;;;;;;;;;1048816;28;2356;-50
2022/12/15 01:57:35;;;;;;;;;;;;;;;;;;1051146;28;2748;-47
2022/12/15 01:58:07;;;;;;;;;;;;;;;;;;1054298;28;2248;-47
2022/12/15 01:58:40;;;;;;;;;;;;;;;;;;1052364;28;2953;-50
2022/12/15 01:59:13;;;;;;;;;;;;;;;;;;1052919;28;2445;-48
2022/12/15 01:59:47;;;;;;;;;;;;;;;;;;1051114;28;2804;-49
2022/12/15 02:00:17;;;;;;;;;;;;;;;;;;1052323;28;2419;-50
2022/12/15 02:00:48;;;;;;;;;;;;;;;;;;1051478;28;2496;-51
2022/12/15 02:01:18;;;;;;;;;;;;;;;;;;1053874;28;2832;-47
2022/12/15 02:01:48;;;;;;;;;;;;;;;;;;1052855;28;2099;-51
2022/12/15 02:02:20;;;;;;;;;;;;;;;;;;1053525;28;2417;-49
2022/12/15 02:02:59;;;;;;;;;;;;;;;;;;1053889;28;2230;-51
2022/12/15 02:03:30;;;;;;;;;;;;;;;;;;1053153;28;2220;-50
2022/12/15 02:04:01;;;;;;;;;;;;;;;;;;1052507;28;2722;-47
2022/12/15 02:04:32;;;;;;;;;;;;;;;;;;1050595;28;2360;-50
2022/12/15 02:05:03;;;;;;;;;;;;;;;;;;1046774;28;3087;-49
2022/12/15 02:05:34;;;;;;;;;;;;;;;;;;1050045;28;2337;-45
2022/12/15 02:06:05;;;;;;;;;;;;;;;;;;1047005;28;2027;-50
2022/12/15 02:06:35;;;;;;;;;;;;;;;;;;1049382;28;2935;-47
2022/12/15 02:07:08;;;;;;;;;;;;;;;;;;1053397;28;2859;-51
2022/12/15 02:07:38;;;;;;;;;;;;;;;;;;1054373;28;1792;-49
2022/12/15 02:08:09;;;;;;;;;;;;;;;;;;1051979;28;2466;-47
2022/12/15 02:08:39;;;;;;;;;;;;;;;;;;1053900;28;2363;-49
2022/12/15 02:09:10;;;;;;;;;;;;;;;;;;1052502;28;2476;-47
2022/12/15 02:09:41;;;;;;;;;;;;;;;;;;1051902;28;2287;-50
2022/12/15 02:10:11;;;;;;;;;;;;;;;;;;1050075;28;2108;-46
2022/12/15 02:10:42;;;;;;;;;;;;;;;;;;1050441;28;2871;-48
2022/12/15 02:11:26;;;;;;;;;;;;;;;;;;1045738;28;2984;-47
2022/12/15 02:12:08;;;;;;;;;;;;;;;;;;1047140;28;2339;-46
2022/12/15 02:12:41;;;;;;;;;;;;;;;;;;1047330;28;2403;-46
2022/12/15 02:13:18;;;;;;;;;;;;;;;;;;1051565;28;2551;-48
2022/12/15 02:13:59;;;;;;;;;;;;;;;;;;1052554;28;2443;-48
2022/12/15 02:14:40;;;;;;;;;;;;;;;;;;1052055;28;2686;-49
2022/12/15 02:15:17;;;;;;;;;;;;;;;;;;1051067;28;3031;-49
2022/12/15 02:15:52;;;;;;;;;;;;;;;;;;1051614;28;2151;-50
2022/12/15 02:16:31;;;;;;;;;;;;;;;;;;1054422;28;2407;-46
2022/12/15 02:17:17;;;;;;;;;;;;;;;;;;1054334;28;2058;-48
2022/12/15 02:17:47;;;;;;;;;;;;;;;;;;1052074;28;1767;-50
2022/12/15 02:18:20;;;;;;;;;;;;;;;;;;1052207;28;2453;-47
2022/12/15 02:18:53;;;;;;;;;;;;;;;;;;1051676;28;2197;-48
2022/12/15 02:19:23;;;;;;;;;;;;;;;;;;1053036;28;2541;-46
2022/12/15 02:20:12;;;;;;;;;;;;;;;;;;1054120;28;2782;-48
2022/12/15 02:20:48;;;;;;;;;;;;;;;;;;1052720;28;2180;-48
2022/12/15 02:21:24;;;;;;;;;;;;;;;;;;1051995;28;2680;-50
2022/12/15 02:22:00;;;;;;;;;;;;;;;;;;1051688;28;2666;-48
2022/12/15 02:22:31;;;;;;;;;;;;;;;;;;1050788;28;2494;-50
2022/12/15 02:23:20;;;;;;;;;;;;;;;;;;1047648;28;2406;-50
2022/12/15 02:24:05;;;;;;;;;;;;;;;;;;1048322;28;2594;-48
2022/12/15 02:24:35;;;;;;;;;;;;;;;;;;1048358;28;2698;-47
2022/12/15 02:25:14;;;;;;;;;;;;;;;;;;1052070;28;2358;-50
2022/12/15 02:26:04;;;;;;;;;;;;;;;;;;1052598;28;2932;-48
2022/12/15 02:26:53;;;;;;;;;;;;;;;;;;1052574;28;2616;-46
2022/12/15 02:27:54;;;;;;;;;;;;;;;;;;1049769;28;4009;-50
2022/12/15 02:28:34;;;;;;;;;;;;;;;;;;1052719;28;2668;-46
2022/12/15 02:29:04;;;;;;;;;;;;;;;;;;1053100;28;2850;-51
2022/12/15 02:29:41;;;;;;;;;;;;;;;;;;1052551;28;2793;-51
2022/12/15 02:30:17;;;;;;;;;;;;;;;;;;1051829;28;2449;-52
2022/12/15 02:31:48;;;;;;;;;;;;;;;;;;1052604;28;2367;-47
2022/12/15 02:32:25;;;;;;;;;;;;;;;;;;1052148;28;2374;-48
2022/12/15 02:33:07;;;;;;;;;;;;;;;;;;1054542;28;2103;-47
2022/12/15 02:33:45;;;;;;;;;;;;;;;;;;1052601;28;2341;-49
2022/12/15 02:34:19;;;;;;;;;;;;;;;;;;1051490;28;2946;-47
2022/12/15 02:34:55;;;;;;;;;;;;;;;;;;1052621;28;2402;-50
2022/12/15 02:35:31;;;;;;;;;;;;;;;;;;1052606;28;2354;-50
2022/12/15 02:36:08;;;;;;;;;;;;;;;;;;1053065;28;2662;-50
2022/12/15 02:36:39;;;;;;;;;;;;;;;;;;1052421;28;2609;-48
2022/12/15 02:37:24;;;;;;;;;;;;;;;;;;1052432;28;2318;-48
2022/12/15 02:37:54;;;;;;;;;;;;;;;;;;1050802;28;2521;-47
2022/12/15 02:38:32;;;;;;;;;;;;;;;;;;1051803;28;2653;-48
2022/12/15 02:39:03;;;;;;;;;;;;;;;;;;1054113;28;2898;-48
2022/12/15 02:39:34;;;;;;;;;;;;;;;;;;1050848;28;2924;-48
2022/12/15 02:40:05;;;;;;;;;;;;;;;;;;1051852;28;2455;-48
2022/12/15 02:40:36;;;;;;;;;;;;;;;;;;1049109;28;2799;-47
2022/12/15 02:41:26;;;;;;;;;;;;;;;;;;1044893;28;2665;-48
2022/12/15 02:41:56;;;;;;;;;;;;;;;;;;1045314;28;2415;-49
2022/12/15 02:42:29;;;;;;;;;;;;;;;;;;1047442;28;2632;-47
2022/12/15 02:43:02;;;;;;;;;;;;;;;;;;1051366;28;2193;-50
2022/12/15 02:43:34;;;;;;;;;;;;;;;;;;1051744;28;2418;-48
2022/12/15 02:44:13;;;;;;;;;;;;;;;;;;1054406;28;2652;-46
2022/12/15 02:44:47;;;;;;;;;;;;;;;;;;1049497;28;2702;-49
2022/12/15 02:45:20;;;;;;;;;;;;;;;;;;1046688;28;2391;-50
2022/12/15 02:45:50;;;;;;;;;;;;;;;;;;1051349;28;1608;-48
2022/12/15 02:46:30;;;;;;;;;;;;;;;;;;1049820;28;2431;-46
2022/12/15 02:47:03;;;;;;;;;;;;;;;;;;1053958;28;2244;-47
2022/12/15 02:47:52;;;;;;;;;;;;;;;;;;1053949;28;2426;-50
2022/12/15 02:48:31;;;;;;;;;;;;;;;;;;1051303;28;2235;-45
2022/12/15 02:49:25;;;;;;;;;;;;;;;;;;1052449;28;2377;-46
2022/12/15 02:49:55;;;;;;;;;;;;;;;;;;1053279;28;2360;-49
2022/12/15 02:50:49;;;;;;;;;;;;;;;;;;1051513;28;2236;-50
2022/12/15 02:51:38;;;;;;;;;;;;;;;;;;1052141;28;2489;-47
2022/12/15 02:52:08;;;;;;;;;;;;;;;;;;1052462;28;2660;-48
2022/12/15 02:52:59;;;;;;;;;;;;;;;;;;1055569;28;2075;-48
2022/12/15 02:53:30;;;;;;;;;;;;;;;;;;1050068;28;2305;-49
2022/12/15 02:54:03;;;;;;;;;;;;;;;;;;1050244;28;2388;-50
2022/12/15 02:54:59;;;;;;;;;;;;;;;;;;1049010;28;2133;-46
2022/12/15 02:55:29;;;;;;;;;;;;;;;;;;1052415;28;2561;-48
2022/12/15 02:56:17;;;;;;;;;;;;;;;;;;1053641;28;2653;-52
2022/12/15 02:57:04;;;;;;;;;;;;;;;;;;1051831;28;2390;-48
2022/12/15 02:57:35;;;;;;;;;;;;;;;;;;1052093;28;2452;-50
2022/12/15 02:58:07;;;;;;;;;;;;;;;;;;1048530;28;2614;-48
2022/12/15 02:58:55;;;;;;;;;;;;;;;;;;1051005;28;2450;-50
2022/12/15 02:59:30;;;;;;;;;;;;;;;;;;1048635;28;2978;-49
2022/12/15 03:00:04;;;;;;;;;;;;;;;;;;1051221;28;2377;-51
2022/12/15 03:00:41;;;;;;;;;;;;;;;;;;1052932;28;2395;-50
2022/12/15 03:01:21;;;;;;;;;;;;;;;;;;1052214;28;2350;-51
2022/12/15 03:01:56;;;;;;;;;;;;;;;;;;1052236;28;2083;-49
2022/12/15 03:02:28;;;;;;;;;;;;;;;;;;1052688;28;3703;-46
2022/12/15 03:02:59;;;;;;;;;;;;;;;;;;1053892;28;2308;-51
2022/12/15 03:03:30;;;;;;;;;;;;;;;;;;1050187;28;2444;-45
2022/12/15 03:04:01;;;;;;;;;;;;;;;;;;1052266;28;2282;-48
2022/12/15 03:04:32;;;;;;;;;;;;;;;;;;1046545;28;2441;-48
2022/12/15 03:05:03;;;;;;;;;;;;;;;;;;1049650;28;1981;-50
2022/12/15 03:05:33;;;;;;;;;;;;;;;;;;1046945;28;2861;-46
2022/12/15 03:06:04;;;;;;;;;;;;;;;;;;1048389;28;2120;-50
2022/12/15 03:06:34;;;;;;;;;;;;;;;;;;1050858;28;2505;-45
2022/12/15 03:07:07;;;;;;;;;;;;;;;;;;1054002;28;2975;-48
2022/12/15 03:07:37;;;;;;;;;;;;;;;;;;1053695;28;2376;-46
2022/12/15 03:08:08;;;;;;;;;;;;;;;;;;1052913;28;2395;-50
2022/12/15 03:08:38;;;;;;;;;;;;;;;;;;1054206;28;2359;-46
2022/12/15 03:09:08;;;;;;;;;;;;;;;;;;1052799;28;2525;-46
2022/12/15 03:09:38;;;;;;;;;;;;;;;;;;1052360;28;2429;-48
2022/12/15 03:10:10;;;;;;;;;;;;;;;;;;1052276;28;2472;-47
2022/12/15 03:10:40;;;;;;;;;;;;;;;;;;1053947;28;2738;-47
2022/12/15 03:11:11;;;;;;;;;;;;;;;;;;1052654;28;2531;-50
2022/12/15 03:11:41;;;;;;;;;;;;;;;;;;1053557;28;2774;-48
2022/12/15 03:12:11;;;;;;;;;;;;;;;;;;1051212;28;2479;-46
2022/12/15 03:12:41;;;;;;;;;;;;;;;;;;1053536;28;2455;-45
2022/12/15 03:13:13;;;;;;;;;;;;;;;;;;1052379;28;3020;-46
2022/12/15 03:13:43;;;;;;;;;;;;;;;;;;1051856;28;2678;-52
2022/12/15 03:14:13;;;;;;;;;;;;;;;;;;1050813;28;2358;-49
2022/12/15 03:14:43;;;;;;;;;;;;;;;;;;1052665;28;2665;-46
2022/12/15 03:15:14;;;;;;;;;;;;;;;;;;1053642;28;2581;-48
2022/12/15 03:15:44;;;;;;;;;;;;;;;;;;1053380;28;2923;-47
2022/12/15 03:16:14;;;;;;;;;;;;;;;;;;1053723;28;2365;-51
2022/12/15 03:16:44;;;;;;;;;;;;;;;;;;1050734;28;2690;-50
2022/12/15 03:17:15;;;;;;;;;;;;;;;;;;1054013;28;2392;-48
2022/12/15 03:17:45;;;;;;;;;;;;;;;;;;1052247;28;2762;-48
2022/12/15 03:18:15;;;;;;;;;;;;;;;;;;1052108;28;2572;-46
2022/12/15 03:18:46;;;;;;;;;;;;;;;;;;1048359;28;2677;-48
2022/12/15 03:19:16;;;;;;;;;;;;;;;;;;1048379;28;2406;-49
2022/12/15 03:19:46;;;;;;;;;;;;;;;;;;1048744;28;2347;-49
2022/12/15 03:20:16;;;;;;;;;;;;;;;;;;1049192;28;3045;-48
2022/12/15 03:20:47;;;;;;;;;;;;;;;;;;1053016;28;2626;-50
2022/12/15 03:21:17;;;;;;;;;;;;;;;;;;1048514;28;2638;-48
2022/12/15 03:21:47;;;;;;;;;;;;;;;;;;1048023;28;2969;-51
2022/12/15 03:22:17;;;;;;;;;;;;;;;;;;1048293;28;2360;-50
2022/12/15 03:22:48;;;;;;;;;;;;;;;;;;1046260;28;2062;-49
2022/12/15 03:23:18;;;;;;;;;;;;;;;;;;1051659;28;2698;-47
2022/12/15 03:23:48;;;;;;;;;;;;;;;;;;1052344;28;2397;-49
2022/12/15 03:24:18;;;;;;;;;;;;;;;;;;1052360;28;2440;-48
2022/12/15 03:24:49;;;;;;;;;;;;;;;;;;1048046;28;2450;-48
2022/12/15 03:25:19;;;;;;;;;;;;;;;;;;1045304;28;2352;-52
2022/12/15 03:25:49;;;;;;;;;;;;;;;;;;1038865;28;2290;-49
2022/12/15 03:26:20;;;;;;;;;;;;;;;;;;1040176;28;2465;-48
2022/12/15 03:26:50;;;;;;;;;;;;;;;;;;1043324;28;2405;-46
2022/12/15 03:27:34;;;;;;;;;;;;;;;;;;1048110;28;2746;-48
2022/12/15 03:28:11;;;;;;;;;;;;;;;;;;1047064;28;3049;-46
2022/12/15 03:28:41;;;;;;;;;;;;;;;;;;1050487;28;2672;-49
2022/12/15 03:29:12;;;;;;;;;;;;;;;;;;1047387;28;2186;-49
2022/12/15 03:29:42;;;;;;;;;;;;;;;;;;1050252;28;2466;-47
2022/12/15 03:30:12;;;;;;;;;;;;;;;;;;1048909;28;2883;-47
2022/12/15 03:30:43;;;;;;;;;;;;;;;;;;1046100;28;2598;-46
2022/12/15 03:31:13;;;;;;;;;;;;;;;;;;1048016;28;2601;-47
2022/12/15 03:31:44;;;;;;;;;;;;;;;;;;1050607;28;2752;-47
2022/12/15 03:32:14;;;;;;;;;;;;;;;;;;1047746;28;2535;-51
2022/12/15 03:32:44;;;;;;;;;;;;;;;;;;1048968;28;2546;-50
2022/12/15 03:33:15;;;;;;;;;;;;;;;;;;1047664;28;2675;-46
2022/12/15 03:33:45;;;;;;;;;;;;;;;;;;1050110;28;2918;-46
2022/12/15 03:34:15;;;;;;;;;;;;;;;;;;1048733;28;2446;-47
2022/12/15 03:34:46;;;;;;;;;;;;;;;;;;1055701;27;1902;-46
2022/12/15 03:35:16;;;;;;;;;;;;;;;;;;1052707;27;2836;-49
2022/12/15 03:35:46;;;;;;;;;;;;;;;;;;1051384;28;2022;-52
2022/12/15 03:36:16;;;;;;;;;;;;;;;;;;1049440;28;2416;-46
2022/12/15 03:36:47;;;;;;;;;;;;;;;;;;1046927;28;2622;-49
2022/12/15 03:37:17;;;;;;;;;;;;;;;;;;1048166;28;2932;-49
2022/12/15 03:37:47;;;;;;;;;;;;;;;;;;1047830;28;2150;-47
2022/12/15 03:38:17;;;;;;;;;;;;;;;;;;1048016;28;2932;-49
2022/12/15 03:38:48;;;;;;;;;;;;;;;;;;1051281;28;2083;-46
2022/12/15 03:39:18;;;;;;;;;;;;;;;;;;1049021;28;2519;-46
2022/12/15 03:39:48;;;;;;;;;;;;;;;;;;1047746;28;2339;-49
2022/12/15 03:40:18;;;;;;;;;;;;;;;;;;1048187;28;2369;-46
2022/12/15 03:40:49;;;;;;;;;;;;;;;;;;1048606;28;2117;-48
2022/12/15 03:41:19;;;;;;;;;;;;;;;;;;1048001;28;2408;-48
2022/12/15 03:41:49;;;;;;;;;;;;;;;;;;1047545;28;2387;-49
2022/12/15 03:42:47;;;;;;;;;;;;;;;;;;1048673;28;2188;-46
2022/12/15 03:43:09;;;;;;;;;;;;;;;;;;1048104;28;2288;-49
2022/12/15 03:43:40;;;;;;;;;;;;;;;;;;1047612;28;2304;-49
2022/12/15 03:44:10;;;;;;;;;;;;;;;;;;1050924;28;2598;-47
2022/12/15 03:44:40;;;;;;;;;;;;;;;;;;1048270;28;2286;-51
2022/12/15 03:45:10;;;;;;;;;;;;;;;;;;1048877;28;2618;-48
2022/12/15 03:45:41;;;;;;;;;;;;;;;;;;1051118;28;1653;-50
2022/12/15 03:46:11;;;;;;;;;;;;;;;;;;1049116;28;2140;-49
2022/12/15 03:46:41;;;;;;;;;;;;;;;;;;1051372;28;2111;-51
2022/12/15 03:47:11;;;;;;;;;;;;;;;;;;1048153;28;2275;-48
2022/12/15 03:47:42;;;;;;;;;;;;;;;;;;1049146;28;2493;-51
2022/12/15 03:48:12;;;;;;;;;;;;;;;;;;1047429;28;2209;-48
2022/12/15 03:48:42;;;;;;;;;;;;;;;;;;1050884;28;2175;-45
2022/12/15 03:49:13;;;;;;;;;;;;;;;;;;1049339;28;2407;-47
2022/12/15 03:49:49;;;;;;;;;;;;;;;;;;1050029;28;2070;-48
2022/12/15 03:50:21;;;;;;;;;;;;;;;;;;1047307;28;2189;-49
2022/12/15 03:50:51;;;;;;;;;;;;;;;;;;1048289;28;2521;-46
2022/12/15 03:51:21;;;;;;;;;;;;;;;;;;1049105;28;2531;-46
2022/12/15 03:51:52;;;;;;;;;;;;;;;;;;1048692;28;2094;-47
2022/12/15 03:52:30;;;;;;;;;;;;;;;;;;1046388;28;2334;-46
2022/12/15 03:53:02;;;;;;;;;;;;;;;;;;1049683;28;2333;-51
2022/12/15 03:53:32;;;;;;;;;;;;;;;;;;1046812;28;2589;-51
2022/12/15 03:54:02;;;;;;;;;;;;;;;;;;1049890;28;2160;-49
2022/12/15 03:54:33;;;;;;;;;;;;;;;;;;1047700;28;2072;-48
2022/12/15 03:55:03;;;;;;;;;;;;;;;;;;1047695;28;2690;-48
2022/12/15 03:55:34;;;;;;;;;;;;;;;;;;1041910;28;2320;-49
2022/12/15 03:56:04;;;;;;;;;;;;;;;;;;1046596;28;2457;-47
2022/12/15 03:56:34;;;;;;;;;;;;;;;;;;1046664;28;2546;-47
2022/12/15 03:57:05;;;;;;;;;;;;;;;;;;1048630;28;2447;-48
2022/12/15 03:57:36;;;;;;;;;;;;;;;;;;1046785;28;2818;-48
2022/12/15 03:58:06;;;;;;;;;;;;;;;;;;1048342;28;2506;-50
2022/12/15 03:58:36;;;;;;;;;;;;;;;;;;1049626;28;2244;-49
2022/12/15 03:59:06;;;;;;;;;;;;;;;;;;1048827;28;2835;-50
2022/12/15 03:59:37;;;;;;;;;;;;;;;;;;1047666;28;2591;-48
2022/12/15 04:00:07;;;;;;;;;;;;;;;;;;1048699;28;2377;-49
2022/12/15 04:00:38;;;;;;;;;;;;;;;;;;1049496;28;2401;-49
2022/12/15 04:01:09;;;;;;;;;;;;;;;;;;1048463;28;2373;-46
2022/12/15 04:01:46;;;;;;;;;;;;;;;;;;1048823;28;2655;-49
2022/12/15 04:02:17;;;;;;;;;;;;;;;;;;1048658;28;2698;-45
2022/12/15 04:02:47;;;;;;;;;;;;;;;;;;1047471;28;2318;-47
2022/12/15 04:03:17;;;;;;;;;;;;;;;;;;1047581;28;2454;-48
2022/12/15 04:03:48;;;;;;;;;;;;;;;;;;1048829;28;2083;-48
2022/12/15 04:04:18;;;;;;;;;;;;;;;;;;1047181;28;3022;-46
2022/12/15 04:04:48;;;;;;;;;;;;;;;;;;1047220;28;2366;-48
2022/12/15 04:05:24;;;;;;;;;;;;;;;;;;1044338;28;2630;-47
2022/12/15 04:05:54;;;;;;;;;;;;;;;;;;1044435;28;3474;-51
2022/12/15 04:06:25;;;;;;;;;;;;;;;;;;1045271;28;2421;-51
2022/12/15 04:06:55;;;;;;;;;;;;;;;;;;1043897;28;2906;-47
2022/12/15 04:07:25;;;;;;;;;;;;;;;;;;1047864;28;3929;-47
2022/12/15 04:07:56;;;;;;;;;;;;;;;;;;1050874;28;2037;-48
2022/12/15 04:08:26;;;;;;;;;;;;;;;;;;1048090;28;2475;-48
2022/12/15 04:08:56;;;;;;;;;;;;;;;;;;1051178;28;2043;-48
2022/12/15 04:09:27;;;;;;;;;;;;;;;;;;1048697;28;2327;-48
2022/12/15 04:09:58;;;;;;;;;;;;;;;;;;1047605;28;2427;-50
2022/12/15 04:10:29;;;;;;;;;;;;;;;;;;1047814;28;2758;-52
2022/12/15 04:10:59;;;;;;;;;;;;;;;;;;1047958;28;2327;-46
2022/12/15 04:11:29;;;;;;;;;;;;;;;;;;1047736;28;2228;-48
2022/12/15 04:12:02;;;;;;;;;;;;;;;;;;1047700;28;2200;-48
2022/12/15 04:12:32;;;;;;;;;;;;;;;;;;1049127;28;3969;-46
2022/12/15 04:13:09;;;;;;;;;;;;;;;;;;1050910;28;2178;-49
2022/12/15 04:13:40;;;;;;;;;;;;;;;;;;1049102;28;2173;-49
2022/12/15 04:14:10;;;;;;;;;;;;;;;;;;1047426;28;2180;-46
2022/12/15 04:14:41;;;;;;;;;;;;;;;;;;1049808;28;2475;-48
2022/12/15 04:15:11;;;;;;;;;;;;;;;;;;1047634;28;2458;-48
2022/12/15 04:15:41;;;;;;;;;;;;;;;;;;1049239;28;2182;-48
2022/12/15 04:16:12;;;;;;;;;;;;;;;;;;1048511;28;2384;-49
2022/12/15 04:16:42;;;;;;;;;;;;;;;;;;1049119;28;2531;-48
2022/12/15 04:17:13;;;;;;;;;;;;;;;;;;1048828;28;2758;-47
2022/12/15 04:17:43;;;;;;;;;;;;;;;;;;1048511;28;3277;-47
2022/12/15 04:18:13;;;;;;;;;;;;;;;;;;1048006;28;2526;-50
2022/12/15 04:18:44;;;;;;;;;;;;;;;;;;1047336;28;2498;-50
2022/12/15 04:20:09;;;;;;;;;;;;;;;;;;1047746;28;2688;-46
2022/12/15 04:20:39;;;;;;;;;;;;;;;;;;1047605;28;2665;-50
2022/12/15 04:21:09;;;;;;;;;;;;;;;;;;1047145;28;2459;-47
2022/12/15 04:21:40;;;;;;;;;;;;;;;;;;1048751;28;2334;-48
2022/12/15 04:22:10;;;;;;;;;;;;;;;;;;1048761;28;3074;-49
2022/12/15 04:22:41;;;;;;;;;;;;;;;;;;1049285;28;2576;-48
2022/12/15 04:23:12;;;;;;;;;;;;;;;;;;1047992;28;3264;-49
2022/12/15 05:31:56;;;;;;;;;;;;;;;;;;1051054;28;2406;-51
2022/12/15 05:32:26;;;;;;;;;;;;;;;;;;1052056;28;2381;-46
2022/12/15 05:32:57;;;;;;;;;;;;;;;;;;1051740;28;2786;-46
2022/12/15 05:33:27;;;;;;;;;;;;;;;;;;1052563;28;1984;-48
2022/12/15 05:33:58;;;;;;;;;;;;;;;;;;1047191;28;2488;-48
2022/12/15 05:34:29;;;;;;;;;;;;;;;;;;1048082;28;2072;-50
2022/12/15 05:35:00;;;;;;;;;;;;;;;;;;1050312;28;2323;-49
2022/12/15 05:35:30;;;;;;;;;;;;;;;;;;1045697;28;2471;-49
2022/12/15 05:36:00;;;;;;;;;;;;;;;;;;1047136;28;3900;-48
2022/12/15 05:36:30;;;;;;;;;;;;;;;;;;1050482;28;1873;-47
2022/12/15 05:37:02;;;;;;;;;;;;;;;;;;1050573;28;2641;-47
2022/12/15 05:37:32;;;;;;;;;;;;;;;;;;1053614;28;2192;-47
2022/12/15 05:38:05;;;;;;;;;;;;;;;;;;1052052;28;1987;-48
2022/12/15 05:38:36;;;;;;;;;;;;;;;;;;1051421;28;1866;-50
2022/12/15 05:39:06;;;;;;;;;;;;;;;;;;1052159;28;1493;-49
2022/12/15 05:39:36;;;;;;;;;;;;;;;;;;1053183;28;2290;-47
2022/12/15 05:40:07;;;;;;;;;;;;;;;;;;1051983;28;2199;-47
2022/12/15 05:40:37;;;;;;;;;;;;;;;;;;1054131;28;2166;-47
2022/12/15 05:41:07;;;;;;;;;;;;;;;;;;1052001;28;2354;-49
2022/12/15 05:41:38;;;;;;;;;;;;;;;;;;1052402;28;2201;-46
2022/12/15 05:42:08;;;;;;;;;;;;;;;;;;1053415;28;1892;-46
2022/12/15 05:42:38;;;;;;;;;;;;;;;;;;1052686;28;2266;-44
2022/12/15 05:43:08;;;;;;;;;;;;;;;;;;1053348;28;3036;-46
2022/12/15 05:43:39;;;;;;;;;;;;;;;;;;1047297;28;2590;-44
2022/12/15 05:44:09;;;;;;;;;;;;;;;;;;1047522;28;1196;-46
2022/12/15 05:44:39;;;;;;;;;;;;;;;;;;1048303;28;2185;-44
2022/12/15 05:45:09;;;;;;;;;;;;;;;;;;1049392;28;2143;-47
2022/12/15 05:45:40;;;;;;;;;;;;;;;;;;1049035;28;2466;-45
2022/12/15 05:46:10;;;;;;;;;;;;;;;;;;1044864;28;2526;-48
2022/12/15 05:46:40;;;;;;;;;;;;;;;;;;1045935;28;2219;-47
2022/12/15 05:47:11;;;;;;;;;;;;;;;;;;1042654;28;2104;-47
2022/12/15 05:47:41;;;;;;;;;;;;;;;;;;1043807;28;2228;-48
2022/12/15 05:48:11;;;;;;;;;;;;;;;;;;1049095;28;2428;-47
2022/12/15 05:48:42;;;;;;;;;;;;;;;;;;1051362;28;1690;-48
2022/12/15 05:49:15;;;;;;;;;;;;;;;;;;1054748;28;2077;-46
2022/12/15 05:49:46;;;;;;;;;;;;;;;;;;1055984;28;2082;-52
2022/12/15 05:50:16;;;;;;;;;;;;;;;;;;1052428;28;2087;-47
2022/12/15 05:50:46;;;;;;;;;;;;;;;;;;1047537;28;1680;-49
2022/12/15 05:51:16;;;;;;;;;;;;;;;;;;1047222;28;2459;-49
2022/12/15 05:51:47;;;;;;;;;;;;;;;;;;1049447;28;2342;-45
2022/12/15 05:52:17;;;;;;;;;;;;;;;;;;1049776;28;2007;-48
2022/12/15 05:52:50;;;;;;;;;;;;;;;;;;1052194;28;2086;-47
2022/12/15 05:53:20;;;;;;;;;;;;;;;;;;1053449;28;2504;-47
2022/12/15 05:53:51;;;;;;;;;;;;;;;;;;1053594;28;2444;-50
2022/12/15 05:54:21;;;;;;;;;;;;;;;;;;1054317;28;2008;-48
2022/12/15 05:54:51;;;;;;;;;;;;;;;;;;1054420;28;2206;-44
2022/12/15 05:55:21;;;;;;;;;;;;;;;;;;1049453;28;2665;-45
2022/12/15 05:55:52;;;;;;;;;;;;;;;;;;1048945;28;2299;-48
2022/12/15 05:56:23;;;;;;;;;;;;;;;;;;1047690;28;2101;-48
2022/12/15 05:56:53;;;;;;;;;;;;;;;;;;1045414;28;2380;-49
2022/12/15 05:57:23;;;;;;;;;;;;;;;;;;1048497;28;1789;-45
2022/12/15 05:57:53;;;;;;;;;;;;;;;;;;1049223;28;2227;-48
2022/12/15 05:58:24;;;;;;;;;;;;;;;;;;1051567;28;2259;-50
2022/12/15 05:58:55;;;;;;;;;;;;;;;;;;1053444;28;2178;-48
2022/12/15 05:59:25;;;;;;;;;;;;;;;;;;1052841;28;2380;-45
2022/12/15 05:59:56;;;;;;;;;;;;;;;;;;1052669;28;2348;-51
2022/12/15 06:00:26;;;;;;;;;;;;;;;;;;1053762;28;2055;-45
2022/12/15 06:01:10;;;;;;;;;;;;;;;;;;1052907;28;2151;-45
2022/12/15 06:01:47;;;;;;;;;;;;;;;;;;1052533;28;2292;-47
2022/12/15 06:02:17;;;;;;;;;;;;;;;;;;1049381;28;2462;-47
2022/12/15 06:02:48;;;;;;;;;;;;;;;;;;1045259;28;2485;-47
2022/12/15 06:03:18;;;;;;;;;;;;;;;;;;1039888;28;2538;-50
2022/12/15 06:03:48;;;;;;;;;;;;;;;;;;1041700;28;2851;-52
2022/12/15 06:04:19;;;;;;;;;;;;;;;;;;1042524;28;2917;-46
2022/12/15 06:04:49;;;;;;;;;;;;;;;;;;1049249;28;2061;-48
2022/12/15 06:05:19;;;;;;;;;;;;;;;;;;1051386;28;2200;-50
2022/12/15 06:05:49;;;;;;;;;;;;;;;;;;1050030;28;2497;-48
2022/12/15 06:06:20;;;;;;;;;;;;;;;;;;1048375;28;2202;-48
2022/12/15 06:06:50;;;;;;;;;;;;;;;;;;1045669;28;2649;-50